Terminal Aerodrome Forecast
Issued by NWS

Current Version | Previous Version | Graphics & Text | Print | Product List | Glossary On
Versions: 1 2 3 4 5 6 7 8 9 10 11 12 13 14 15 16 17 18 19 20 21 22 23 24 25 26 27 28
000
FTUS41 KRLX 292323
TAFCKB
TAF
KCKB 292323Z 3000/3024 VRB03KT P6SM VCSH BKN050
     FM300100 00000KT P6SM BKN100
     FM300800 00000KT 5SM BR SCT080
     FM300900 00000KT 2SM BR SCT080
     FM301300 20004KT P6SM SCT050
     FM301800 21006KT P6SM VCTS BKN040CB=

USA.gov is the U.S. government's official web portal to all federal, state and local government web resources and services.